Time;durP1;ratioP1;P1;durP2;ratioP2;P2;SDS_P1;SDS_P2;PMS_P1;PMS_P2;Temp;Humidity;BMP_temperature;BMP_pressure;BME280_temperature;BME280_humidity;BME280_pressure;Samples;Min_cycle;Max_cycle;Signal;HPM_P1;HPM_P2
2023/04/30 00:04:02;;;;;;;;;;;22.20;52.30;;;;;;4746351;58;20056;-28
2023/04/30 00:09:03;;;;;;;;;;;22.20;52.90;;;;;;4762887;55;20323;-26
2023/04/30 00:14:03;;;;;;;;;;;22.20;52.30;;;;;;4770555;55;20153;-27
2023/04/30 00:19:04;;;;;;;;;;;22.20;52.20;;;;;;4746934;58;20322;-27
2023/04/30 00:24:05;;;;;;;;;;;22.20;52.20;;;;;;4771342;55;20072;-27
2023/04/30 00:29:05;;;;;;;;;;;22.20;52.20;;;;;;4747296;55;20139;-26
2023/04/30 00:34:06;;;;;;;;;;;22.20;52.20;;;;;;4842485;55;20346;-31
2023/04/30 00:39:07;;;;;;;;;;;22.20;52.20;;;;;;4898400;55;20520;-27
2023/04/30 00:44:07;;;;;;;;;;;22.20;52.80;;;;;;4746741;58;20112;-29
2023/04/30 00:49:08;;;;;;;;;;;22.20;52.10;;;;;;4835763;55;20121;-27
2023/04/30 00:54:09;;;;;;;;;;;22.20;52.20;;;;;;4898769;55;20413;-28
2023/04/30 00:59:10;;;;;;;;;;;22.20;52.00;;;;;;4815987;55;20100;-27
2023/04/30 01:04:11;;;;;;;;;;;22.20;52.00;;;;;;4746584;58;20302;-31
2023/04/30 01:09:12;;;;;;;;;;;22.20;52.00;;;;;;4751371;55;20112;-31
2023/04/30 01:14:17;;;;;;;;;;;22.20;52.00;;;;;;4931349;55;20060;-29
2023/04/30 01:19:33;;;;;;;;;;;22.20;51.90;;;;;;4775398;55;20069;-30
2023/04/30 01:24:47;;;;;;;;;;;22.20;51.90;;;;;;4769952;55;20132;-29
2023/04/30 01:29:49;;;;;;;;;;;22.20;51.90;;;;;;4763657;55;20116;-29
2023/04/30 01:34:50;;;;;;;;;;;22.20;51.80;;;;;;4746911;58;20124;-31
2023/04/30 01:42:28;;;;;;;;;;;22.10;51.80;;;;;;4746075;58;20117;-30
2023/04/30 01:47:35;;;;;;;;;;;22.20;51.80;;;;;;4812349;55;20076;-31
2023/04/30 01:52:46;;;;;;;;;;;22.10;51.60;;;;;;4760150;55;20052;-28
2023/04/30 01:58:00;;;;;;;;;;;22.20;51.70;;;;;;4779021;55;20136;-28
2023/04/30 02:03:00;;;;;;;;;;;22.10;51.70;;;;;;4777469;55;20179;-29
2023/04/30 02:08:02;;;;;;;;;;;22.10;51.60;;;;;;4746595;58;20351;-29
2023/04/30 02:13:02;;;;;;;;;;;22.10;51.50;;;;;;4759825;55;20313;-27
2023/04/30 02:18:03;;;;;;;;;;;22.20;51.50;;;;;;4768894;55;20117;-30
2023/04/30 02:23:03;;;;;;;;;;;22.10;51.40;;;;;;4814334;55;20282;-27
2023/04/30 02:28:04;;;;;;;;;;;22.20;51.40;;;;;;4848497;55;20136;-29
2023/04/30 02:33:05;;;;;;;;;;;22.20;51.40;;;;;;4786314;55;20230;-29
2023/04/30 02:38:05;;;;;;;;;;;22.10;51.30;;;;;;4826603;55;20263;-28
2023/04/30 02:43:09;;;;;;;;;;;22.10;51.30;;;;;;4915229;55;20485;-27
2023/04/30 02:48:09;;;;;;;;;;;22.10;51.30;;;;;;4751932;55;20399;-31
2023/04/30 02:53:10;;;;;;;;;;;22.10;51.20;;;;;;4835730;55;20128;-32
2023/04/30 02:58:11;;;;;;;;;;;22.10;51.20;;;;;;4762628;55;20076;-29
2023/04/30 03:03:12;;;;;;;;;;;22.10;51.20;;;;;;4856117;55;20359;-28
2023/04/30 03:08:13;;;;;;;;;;;22.10;51.10;;;;;;4831320;55;20084;-31
2023/04/30 03:13:13;;;;;;;;;;;22.10;51.10;;;;;;4781777;55;20386;-28
2023/04/30 03:18:14;;;;;;;;;;;22.10;51.10;;;;;;4745711;58;20462;-31
2023/04/30 03:23:15;;;;;;;;;;;22.10;51.00;;;;;;4826736;55;20127;-28
2023/04/30 03:28:15;;;;;;;;;;;22.10;51.10;;;;;;4745844;58;20084;-29
2023/04/30 03:33:16;;;;;;;;;;;22.10;50.90;;;;;;4746503;55;20153;-26
2023/04/30 03:38:16;;;;;;;;;;;22.10;50.90;;;;;;4856837;55;20089;-28
2023/04/30 03:43:17;;;;;;;;;;;22.10;50.90;;;;;;4746307;58;20298;-27
2023/04/30 03:48:18;;;;;;;;;;;22.10;50.90;;;;;;4832889;55;20971;-26
2023/04/30 03:53:21;;;;;;;;;;;22.10;50.90;;;;;;4813702;55;20069;-29
2023/04/30 03:58:22;;;;;;;;;;;22.10;50.90;;;;;;4843477;55;20080;-29
2023/04/30 04:03:23;;;;;;;;;;;22.10;50.90;;;;;;4869770;55;20422;-26
2023/04/30 04:08:24;;;;;;;;;;;22.10;50.80;;;;;;4746642;58;20156;-28
2023/04/30 04:13:24;;;;;;;;;;;22.10;50.80;;;;;;4796974;55;20081;-28
2023/04/30 04:18:25;;;;;;;;;;;22.10;50.80;;;;;;4767705;55;20076;-31
2023/04/30 04:23:26;;;;;;;;;;;22.10;50.80;;;;;;4765653;55;20053;-26
2023/04/30 04:28:26;;;;;;;;;;;22.10;50.70;;;;;;4770263;55;20299;-30
2023/04/30 04:33:27;;;;;;;;;;;22.10;50.70;;;;;;4799849;55;20207;-32
2023/04/30 04:38:28;;;;;;;;;;;22.10;50.80;;;;;;4838753;55;20343;-28
2023/04/30 04:43:29;;;;;;;;;;;22.10;51.20;;;;;;4756059;55;20383;-28
2023/04/30 04:48:30;;;;;;;;;;;22.10;50.70;;;;;;4748307;55;20160;-25
2023/04/30 04:53:30;;;;;;;;;;;22.10;50.70;;;;;;4746601;55;20121;-29
2023/04/30 04:58:31;;;;;;;;;;;22.10;50.70;;;;;;4769141;55;20283;-31
2023/04/30 05:03:32;;;;;;;;;;;22.10;50.70;;;;;;4778089;55;20287;-29
2023/04/30 05:08:32;;;;;;;;;;;22.10;50.70;;;;;;4746009;58;20132;-28
2023/04/30 05:13:33;;;;;;;;;;;22.10;50.70;;;;;;4746966;58;20112;-29
2023/04/30 05:18:34;;;;;;;;;;;22.10;50.70;;;;;;4745527;58;20112;-27
2023/04/30 05:23:34;;;;;;;;;;;22.10;50.70;;;;;;4763643;55;20096;-30
2023/04/30 05:28:36;;;;;;;;;;;22.10;50.70;;;;;;4815288;55;20351;-30
2023/04/30 05:33:37;;;;;;;;;;;22.10;50.70;;;;;;4746529;58;20299;-29
2023/04/30 05:38:37;;;;;;;;;;;22.10;50.70;;;;;;4745423;58;20073;-29
2023/04/30 05:43:38;;;;;;;;;;;22.10;50.80;;;;;;4764757;55;20375;-28
2023/04/30 05:48:39;;;;;;;;;;;22.10;50.80;;;;;;4788575;55;20064;-29
2023/04/30 05:53:39;;;;;;;;;;;22.10;50.90;;;;;;4781096;55;20072;-27
2023/04/30 05:58:41;;;;;;;;;;;22.10;50.80;;;;;;4745604;58;20294;-29
2023/04/30 06:03:41;;;;;;;;;;;22.10;50.90;;;;;;4758351;55;20362;-30
2023/04/30 06:08:44;;;;;;;;;;;22.10;50.80;;;;;;4775258;55;20115;-19
2023/04/30 06:13:46;;;;;;;;;;;22.10;50.80;;;;;;4746538;58;20302;-30
2023/04/30 06:18:47;;;;;;;;;;;22.10;50.90;;;;;;4792600;55;20111;-27
2023/04/30 06:23:47;;;;;;;;;;;22.10;51.00;;;;;;4746578;58;20513;-31
2023/04/30 06:28:48;;;;;;;;;;;22.10;50.90;;;;;;4773100;55;20080;-28
2023/04/30 06:33:49;;;;;;;;;;;22.10;50.90;;;;;;4786668;55;20112;-29
2023/04/30 06:38:50;;;;;;;;;;;22.10;51.00;;;;;;4822642;55;20312;-24
2023/04/30 06:43:50;;;;;;;;;;;22.10;50.90;;;;;;4746457;58;20112;-28
2023/04/30 06:48:51;;;;;;;;;;;22.10;51.00;;;;;;4782367;55;20307;-29
2023/04/30 06:53:52;;;;;;;;;;;22.10;51.00;;;;;;4746182;58;20072;-29
2023/04/30 06:58:52;;;;;;;;;;;22.10;51.00;;;;;;4776970;55;20101;-29
2023/04/30 07:03:53;;;;;;;;;;;22.10;51.10;;;;;;4766349;55;20069;-31
2023/04/30 07:08:54;;;;;;;;;;;22.10;51.80;;;;;;4746374;58;20140;-28
2023/04/30 07:13:55;;;;;;;;;;;22.10;51.10;;;;;;4746310;58;20113;-28
2023/04/30 07:18:56;;;;;;;;;;;22.10;51.10;;;;;;4785725;55;20346;-30
2023/04/30 07:23:57;;;;;;;;;;;22.10;51.10;;;;;;4756289;55;20048;-27
2023/04/30 07:28:57;;;;;;;;;;;22.10;51.20;;;;;;4767097;55;20076;-28
2023/04/30 07:33:58;;;;;;;;;;;22.10;51.20;;;;;;4840274;55;20362;-29
2023/04/30 07:38:59;;;;;;;;;;;22.10;51.20;;;;;;4762397;55;20068;-28
2023/04/30 07:43:59;;;;;;;;;;;22.10;51.30;;;;;;4746518;58;20431;-29
2023/04/30 07:49:00;;;;;;;;;;;22.10;51.20;;;;;;4789938;55;20088;-28
2023/04/30 07:54:01;;;;;;;;;;;22.10;51.30;;;;;;4866941;55;20069;-30
2023/04/30 07:59:01;;;;;;;;;;;22.10;51.30;;;;;;4773959;55;20116;-28
2023/04/30 08:04:02;;;;;;;;;;;22.10;51.40;;;;;;4758787;55;20279;-30
2023/04/30 08:09:03;;;;;;;;;;;22.10;51.40;;;;;;4766499;55;20116;-29
2023/04/30 08:14:05;;;;;;;;;;;22.10;51.40;;;;;;4747441;55;20322;-31
2023/04/30 08:19:06;;;;;;;;;;;22.10;51.40;;;;;;4771047;55;20311;-30
2023/04/30 08:24:07;;;;;;;;;;;22.10;51.40;;;;;;4833602;55;20120;-31
2023/04/30 08:29:08;;;;;;;;;;;22.10;51.40;;;;;;4767529;55;20053;-30
2023/04/30 08:34:08;;;;;;;;;;;22.10;51.50;;;;;;4851754;55;20112;-28
2023/04/30 08:39:10;;;;;;;;;;;22.10;51.50;;;;;;4834017;55;20085;-27
2023/04/30 08:44:12;;;;;;;;;;;22.10;51.90;;;;;;4755103;55;20351;-24
2023/04/30 08:49:12;;;;;;;;;;;22.10;51.60;;;;;;4816954;55;20116;-30
2023/04/30 08:54:16;;;;;;;;;;;22.10;51.60;;;;;;4792344;55;20069;-29
2023/04/30 08:59:17;;;;;;;;;;;22.10;51.60;;;;;;4776062;55;20073;-28
2023/04/30 09:04:18;;;;;;;;;;;22.10;51.60;;;;;;4755246;55;20346;-28
2023/04/30 09:09:18;;;;;;;;;;;22.10;51.60;;;;;;4790279;55;20369;-34
2023/04/30 09:14:23;;;;;;;;;;;22.10;51.60;;;;;;4746574;58;20407;-29
2023/04/30 09:19:28;;;;;;;;;;;22.10;51.60;;;;;;4746469;58;20347;-29
2023/04/30 09:24:44;;;;;;;;;;;22.10;51.70;;;;;;4746528;58;20175;-28
2023/04/30 09:29:45;;;;;;;;;;;22.10;51.70;;;;;;4811910;54;20124;-29
2023/04/30 09:34:46;;;;;;;;;;;22.10;51.70;;;;;;4746299;58;20136;-27
2023/04/30 09:39:48;;;;;;;;;;;22.10;51.70;;;;;;4815183;55;20120;-30
2023/04/30 09:44:49;;;;;;;;;;;22.10;51.70;;;;;;4982260;55;20287;-28
2023/04/30 09:49:53;;;;;;;;;;;22.10;51.70;;;;;;4791277;55;20120;-27
2023/04/30 09:54:53;;;;;;;;;;;22.10;51.80;;;;;;4781473;55;20407;-30
2023/04/30 09:59:56;;;;;;;;;;;22.10;51.70;;;;;;4767440;55;20131;-29
2023/04/30 10:04:57;;;;;;;;;;;22.10;51.80;;;;;;4828324;55;20309;-28
2023/04/30 10:09:58;;;;;;;;;;;22.10;51.80;;;;;;4792322;55;20100;-32
2023/04/30 10:15:24;;;;;;;;;;;22.10;51.80;;;;;;4746115;58;20111;-27
2023/04/30 10:20:25;;;;;;;;;;;22.10;51.80;;;;;;4746229;58;20316;-28
2023/04/30 10:25:26;;;;;;;;;;;22.20;51.90;;;;;;4758832;55;20397;-32
2023/04/30 10:30:27;;;;;;;;;;;22.20;51.90;;;;;;4905443;55;20295;-28
2023/04/30 10:35:29;;;;;;;;;;;22.20;51.90;;;;;;4755018;55;20064;-30
2023/04/30 10:40:34;;;;;;;;;;;22.20;51.90;;;;;;4755940;55;20128;-31
2023/04/30 10:45:36;;;;;;;;;;;22.20;51.90;;;;;;4746114;58;20075;-31
2023/04/30 10:50:43;;;;;;;;;;;22.20;51.90;;;;;;4745996;58;20306;-29
2023/04/30 10:55:51;;;;;;;;;;;22.20;51.90;;;;;;4745246;58;20283;-27
2023/04/30 11:01:10;;;;;;;;;;;22.20;51.90;;;;;;4915764;55;20117;-28
2023/04/30 11:06:18;;;;;;;;;;;22.20;51.90;;;;;;4769342;55;20088;-30
2023/04/30 11:11:22;;;;;;;;;;;22.20;51.90;;;;;;4776611;55;20350;-33
2023/04/30 11:16:33;;;;;;;;;;;22.20;51.90;;;;;;4781722;55;20314;-28
2023/04/30 11:21:33;;;;;;;;;;;22.20;51.90;;;;;;4755134;55;20064;-28
2023/04/30 11:26:52;;;;;;;;;;;22.20;51.90;;;;;;4782971;55;20362;-28
2023/04/30 11:31:54;;;;;;;;;;;22.20;52.00;;;;;;4771089;55;20140;-28
2023/04/30 11:36:57;;;;;;;;;;;22.20;52.00;;;;;;4745300;58;20059;-28
2023/04/30 11:42:01;;;;;;;;;;;22.20;52.10;;;;;;4787630;55;20120;-31
2023/04/30 11:47:02;;;;;;;;;;;22.20;52.10;;;;;;4746356;58;20355;-30
2023/04/30 11:52:03;;;;;;;;;;;22.20;52.10;;;;;;4749976;55;20072;-29
2023/04/30 11:57:05;;;;;;;;;;;22.20;52.10;;;;;;4745847;55;20075;-32
2023/04/30 12:02:06;;;;;;;;;;;22.20;52.20;;;;;;4746908;55;20290;-31
2023/04/30 12:07:07;;;;;;;;;;;22.20;52.20;;;;;;4746310;58;20370;-30
2023/04/30 12:12:08;;;;;;;;;;;22.20;52.20;;;;;;4747202;55;20287;-31
2023/04/30 12:17:09;;;;;;;;;;;22.30;52.30;;;;;;4761382;55;20125;-29
2023/04/30 12:22:09;;;;;;;;;;;22.30;52.30;;;;;;4756959;55;20347;-28
2023/04/30 12:27:10;;;;;;;;;;;22.30;52.30;;;;;;4763702;55;20081;-30
2023/04/30 12:32:14;;;;;;;;;;;22.30;52.30;;;;;;4765000;55;20387;-29
2023/04/30 12:37:16;;;;;;;;;;;22.30;53.10;;;;;;4745837;58;20299;-28
2023/04/30 12:42:19;;;;;;;;;;;22.30;52.40;;;;;;4782744;55;20124;-27
2023/04/30 12:47:20;;;;;;;;;;;22.30;52.40;;;;;;4754501;55;20069;-28
2023/04/30 12:52:25;;;;;;;;;;;22.30;52.40;;;;;;4758391;55;20180;-27
2023/04/30 12:57:26;;;;;;;;;;;22.30;52.40;;;;;;4763997;55;20314;-30
2023/04/30 13:02:28;;;;;;;;;;;22.30;52.50;;;;;;4773486;55;20116;-28
2023/04/30 13:07:39;;;;;;;;;;;22.30;52.70;;;;;;4755077;55;20116;-31
2023/04/30 13:12:40;;;;;;;;;;;22.30;52.50;;;;;;4747073;58;20335;-32
2023/04/30 13:17:41;;;;;;;;;;;22.30;52.50;;;;;;4821523;55;20068;-29
2023/04/30 13:22:41;;;;;;;;;;;22.30;52.50;;;;;;4746257;58;20076;-31
2023/04/30 13:27:42;;;;;;;;;;;22.20;52.40;;;;;;4758980;55;20365;-29
2023/04/30 13:32:44;;;;;;;;;;;22.30;53.10;;;;;;4783110;55;20136;-28
2023/04/30 13:37:47;;;;;;;;;;;22.30;52.50;;;;;;4762563;55;20354;-29
2023/04/30 13:42:48;;;;;;;;;;;22.30;52.50;;;;;;4746912;55;20295;-28
2023/04/30 13:47:49;;;;;;;;;;;22.30;52.50;;;;;;4751967;55;20152;-27
2023/04/30 13:52:49;;;;;;;;;;;22.20;52.60;;;;;;4836965;55;20068;-30
2023/04/30 13:57:50;;;;;;;;;;;22.30;52.60;;;;;;4745910;58;20057;-29
2023/04/30 14:02:52;;;;;;;;;;;22.30;52.60;;;;;;4751874;55;20129;-30
2023/04/30 14:07:52;;;;;;;;;;;22.30;52.60;;;;;;4746663;58;20327;-29
2023/04/30 14:12:53;;;;;;;;;;;22.20;52.60;;;;;;4746125;58;20116;-28
2023/04/30 14:17:54;;;;;;;;;;;22.30;52.70;;;;;;4745498;56;20315;-28
2023/04/30 14:22:54;;;;;;;;;;;22.30;52.60;;;;;;4763826;55;20060;-32
2023/04/30 14:27:55;;;;;;;;;;;22.30;52.60;;;;;;4785079;55;20131;-29
2023/04/30 14:32:55;;;;;;;;;;;22.20;52.70;;;;;;4867845;55;20339;-31
2023/04/30 14:37:56;;;;;;;;;;;22.30;52.60;;;;;;4775697;55;20080;-28
2023/04/30 14:42:57;;;;;;;;;;;22.20;52.60;;;;;;4788848;55;20077;-29
2023/04/30 14:47:57;;;;;;;;;;;22.30;52.60;;;;;;4746447;58;20168;-27
2023/04/30 14:52:58;;;;;;;;;;;22.30;52.60;;;;;;4750507;55;20100;-26
2023/04/30 14:57:59;;;;;;;;;;;22.30;52.60;;;;;;4745701;58;20315;-27
2023/04/30 15:03:00;;;;;;;;;;;22.30;52.60;;;;;;4772258;55;20322;-29
2023/04/30 15:08:01;;;;;;;;;;;22.30;52.70;;;;;;4791157;55;20080;-29
2023/04/30 15:13:02;;;;;;;;;;;22.30;52.70;;;;;;4793591;55;20338;-30
2023/04/30 15:18:04;;;;;;;;;;;22.30;52.70;;;;;;4765145;55;20048;-31
2023/04/30 15:23:05;;;;;;;;;;;22.30;52.70;;;;;;4821574;55;20283;-30
2023/04/30 15:28:05;;;;;;;;;;;22.30;52.70;;;;;;4745326;58;20112;-29
2023/04/30 15:33:06;;;;;;;;;;;22.30;52.70;;;;;;4746254;58;20306;-28
2023/04/30 15:38:07;;;;;;;;;;;22.30;52.70;;;;;;4745116;56;20072;-30
2023/04/30 15:43:08;;;;;;;;;;;22.30;52.70;;;;;;4768536;55;20343;-27
2023/04/30 15:48:08;;;;;;;;;;;22.30;52.70;;;;;;4773065;55;20088;-27
2023/04/30 15:53:09;;;;;;;;;;;22.30;52.80;;;;;;4746463;55;20303;-26
2023/04/30 15:58:10;;;;;;;;;;;22.30;52.70;;;;;;4752398;55;20725;-26
2023/04/30 16:03:10;;;;;;;;;;;22.30;52.70;;;;;;4770699;55;20072;-27
2023/04/30 16:08:13;;;;;;;;;;;22.30;52.70;;;;;;4781557;55;20120;-32
2023/04/30 16:13:14;;;;;;;;;;;22.30;52.70;;;;;;4746715;58;20370;-29
2023/04/30 16:18:15;;;;;;;;;;;22.30;52.80;;;;;;4755885;55;20125;-26
2023/04/30 16:23:16;;;;;;;;;;;22.30;52.80;;;;;;4768597;55;20295;-29
2023/04/30 16:28:17;;;;;;;;;;;22.30;52.80;;;;;;4768754;55;20100;-29
2023/04/30 16:33:17;;;;;;;;;;;22.30;52.80;;;;;;4800926;55;20403;-28
2023/04/30 16:38:19;;;;;;;;;;;22.30;52.90;;;;;;4780603;55;20068;-31
2023/04/30 16:43:20;;;;;;;;;;;22.30;52.80;;;;;;4847634;55;20496;-27
2023/04/30 16:48:20;;;;;;;;;;;22.30;52.90;;;;;;4748580;55;20109;-32
2023/04/30 16:53:21;;;;;;;;;;;22.30;52.90;;;;;;4746669;58;20112;-29
2023/04/30 16:58:22;;;;;;;;;;;22.30;53.00;;;;;;4951659;55;20797;-26
2023/04/30 17:03:22;;;;;;;;;;;22.30;52.90;;;;;;4848022;55;20056;-28
2023/04/30 17:08:23;;;;;;;;;;;22.30;53.00;;;;;;4798142;55;20112;-28
2023/04/30 17:13:24;;;;;;;;;;;22.30;53.00;;;;;;4746437;58;20060;-28
2023/04/30 17:18:25;;;;;;;;;;;22.30;53.00;;;;;;4802085;55;20374;-28
2023/04/30 17:23:26;;;;;;;;;;;22.30;53.00;;;;;;4746830;55;20294;-32
2023/04/30 17:28:27;;;;;;;;;;;22.30;53.00;;;;;;4770075;55;20068;-27
2023/04/30 17:33:28;;;;;;;;;;;22.30;52.60;;;;;;4843340;55;20320;-28
2023/04/30 17:38:28;;;;;;;;;;;22.30;53.10;;;;;;4752884;55;20120;-28
2023/04/30 17:43:29;;;;;;;;;;;22.30;53.10;;;;;;4746310;58;20165;-29
2023/04/30 17:48:30;;;;;;;;;;;22.30;53.10;;;;;;4761838;55;20315;-29
2023/04/30 17:53:30;;;;;;;;;;;22.30;53.20;;;;;;4752810;55;20120;-28
2023/04/30 17:58:31;;;;;;;;;;;22.30;53.10;;;;;;4745830;58;20124;-31
2023/04/30 18:03:32;;;;;;;;;;;22.30;53.20;;;;;;4857676;55;20382;-27
2023/04/30 18:08:33;;;;;;;;;;;22.20;53.10;;;;;;4746670;58;20113;-28
2023/04/30 18:13:33;;;;;;;;;;;22.30;53.20;;;;;;4793803;55;20063;-30
2023/04/30 18:18:34;;;;;;;;;;;22.30;53.80;;;;;;4834140;55;20943;-27
2023/04/30 18:23:35;;;;;;;;;;;22.30;53.30;;;;;;4764666;55;20108;-30
2023/04/30 18:28:36;;;;;;;;;;;22.30;53.30;;;;;;4745608;58;20324;-31
2023/04/30 18:33:37;;;;;;;;;;;22.30;53.30;;;;;;4746585;58;20367;-29
2023/04/30 18:38:38;;;;;;;;;;;22.30;53.30;;;;;;4803574;55;20112;-31
2023/04/30 18:43:41;;;;;;;;;;;22.30;53.30;;;;;;4777315;55;20303;-28
2023/04/30 18:48:42;;;;;;;;;;;22.30;53.30;;;;;;4746364;58;20342;-28
2023/04/30 18:53:44;;;;;;;;;;;22.30;53.40;;;;;;4746467;58;20116;-30
2023/04/30 18:58:46;;;;;;;;;;;22.30;53.40;;;;;;4777037;55;20073;-28
2023/04/30 19:03:47;;;;;;;;;;;22.30;53.40;;;;;;4751482;55;20349;-27
2023/04/30 19:08:48;;;;;;;;;;;22.30;53.40;;;;;;4806008;55;20069;-28
2023/04/30 19:13:49;;;;;;;;;;;22.30;53.40;;;;;;4754131;55;20354;-32
2023/04/30 19:18:49;;;;;;;;;;;22.30;53.40;;;;;;4747841;55;20068;-29
2023/04/30 19:23:50;;;;;;;;;;;22.20;53.40;;;;;;4823009;55;20331;-29
2023/04/30 19:28:51;;;;;;;;;;;22.30;53.50;;;;;;4745299;58;20072;-26
2023/04/30 19:33:51;;;;;;;;;;;22.30;53.50;;;;;;4746221;58;20359;-35
2023/04/30 19:38:52;;;;;;;;;;;22.30;53.50;;;;;;4825910;55;20092;-31
2023/04/30 19:43:53;;;;;;;;;;;22.30;53.50;;;;;;4746817;58;20145;-29
2023/04/30 19:48:53;;;;;;;;;;;22.30;53.50;;;;;;4777320;55;20849;-31
2023/04/30 19:53:54;;;;;;;;;;;22.20;53.50;;;;;;4875857;55;20068;-31
2023/04/30 19:58:55;;;;;;;;;;;22.30;53.60;;;;;;4745966;55;20354;-30
2023/04/30 20:03:56;;;;;;;;;;;22.30;53.60;;;;;;4793345;55;20344;-29
2023/04/30 20:08:58;;;;;;;;;;;22.30;53.60;;;;;;4812389;55;20096;-28
2023/04/30 20:13:58;;;;;;;;;;;22.30;53.60;;;;;;4838433;55;20335;-30
2023/04/30 20:18:59;;;;;;;;;;;22.20;53.50;;;;;;4757464;55;20068;-29
2023/04/30 20:24:00;;;;;;;;;;;22.20;53.60;;;;;;4747068;55;20057;-29
2023/04/30 20:29:01;;;;;;;;;;;22.20;54.20;;;;;;4745811;58;20331;-29
2023/04/30 20:34:02;;;;;;;;;;;22.20;53.50;;;;;;4771593;55;20121;-26
2023/04/30 20:39:03;;;;;;;;;;;22.20;53.50;;;;;;4833088;55;20295;-27
2023/04/30 20:44:04;;;;;;;;;;;22.20;53.60;;;;;;4746298;58;20311;-29
2023/04/30 20:49:05;;;;;;;;;;;22.30;53.60;;;;;;4783337;55;20347;-28
2023/04/30 20:54:07;;;;;;;;;;;22.30;53.60;;;;;;4827759;55;20116;-29
2023/04/30 20:59:08;;;;;;;;;;;22.30;54.30;;;;;;4764186;55;20295;-28
2023/04/30 21:04:08;;;;;;;;;;;22.20;53.60;;;;;;4746101;58;20061;-26
2023/04/30 21:09:11;;;;;;;;;;;22.20;53.60;;;;;;4791852;55;20311;-29
2023/04/30 21:14:11;;;;;;;;;;;22.20;54.20;;;;;;4756256;55;20275;-27
2023/04/30 21:19:12;;;;;;;;;;;22.20;53.60;;;;;;4767824;55;20097;-28
2023/04/30 21:24:13;;;;;;;;;;;22.20;53.60;;;;;;4798718;55;20384;-26
2023/04/30 21:29:13;;;;;;;;;;;22.20;53.60;;;;;;4755599;55;20068;-29
2023/04/30 21:34:14;;;;;;;;;;;22.20;53.70;;;;;;4746574;58;20088;-29
2023/04/30 21:39:16;;;;;;;;;;;22.20;53.60;;;;;;4745137;58;20175;-28
2023/04/30 21:44:16;;;;;;;;;;;22.20;53.60;;;;;;4763952;55;20354;-28
2023/04/30 21:49:17;;;;;;;;;;;22.20;53.60;;;;;;4840137;55;20124;-28
2023/04/30 21:54:18;;;;;;;;;;;22.20;53.60;;;;;;4774248;55;20294;-29
2023/04/30 21:59:18;;;;;;;;;;;22.20;53.60;;;;;;4745439;58;20477;-30
2023/04/30 22:04:20;;;;;;;;;;;22.20;53.60;;;;;;4771335;55;20145;-28
2023/04/30 22:09:20;;;;;;;;;;;22.20;53.60;;;;;;4746744;58;20295;-28
2023/04/30 22:14:21;;;;;;;;;;;22.20;53.60;;;;;;4817311;55;20107;-31
2023/04/30 22:19:22;;;;;;;;;;;22.20;53.60;;;;;;4827122;55;20290;-27
2023/04/30 22:24:23;;;;;;;;;;;22.20;53.60;;;;;;4750285;55;20064;-31
2023/04/30 22:29:24;;;;;;;;;;;22.20;53.60;;;;;;4745597;58;20330;-28
2023/04/30 22:34:27;;;;;;;;;;;22.20;53.60;;;;;;4746555;55;20064;-28
2023/04/30 22:39:28;;;;;;;;;;;22.20;53.60;;;;;;4867225;55;20072;-29
2023/04/30 22:44:29;;;;;;;;;;;22.20;54.00;;;;;;4782115;55;20339;-25
2023/04/30 22:49:29;;;;;;;;;;;22.20;53.70;;;;;;4746674;55;20064;-28
2023/04/30 22:54:30;;;;;;;;;;;22.20;53.60;;;;;;4968221;55;20056;-29
2023/04/30 22:59:32;;;;;;;;;;;22.20;53.60;;;;;;4800054;55;20453;-28
2023/04/30 23:04:32;;;;;;;;;;;22.20;53.60;;;;;;4746340;58;20271;-29
2023/04/30 23:09:33;;;;;;;;;;;22.20;53.60;;;;;;4817968;55;20053;-27
2023/04/30 23:14:34;;;;;;;;;;;22.20;53.60;;;;;;4746012;58;20068;-28
2023/04/30 23:19:34;;;;;;;;;;;22.20;53.60;;;;;;4754994;55;20323;-27
2023/04/30 23:24:36;;;;;;;;;;;22.20;53.60;;;;;;4845701;55;20068;-27
2023/04/30 23:29:37;;;;;;;;;;;22.20;53.70;;;;;;4745413;58;20346;-28
2023/04/30 23:34:38;;;;;;;;;;;22.20;53.60;;;;;;4803022;55;20105;-27
2023/04/30 23:39:38;;;;;;;;;;;22.20;53.60;;;;;;4769280;55;20088;-28
2023/04/30 23:44:39;;;;;;;;;;;22.20;53.60;;;;;;4746519;56;20133;-28
2023/04/30 23:49:40;;;;;;;;;;;22.20;53.60;;;;;;4746293;58;20104;-28
2023/04/30 23:54:40;;;;;;;;;;;22.20;53.60;;;;;;4817943;55;20843;-27
2023/04/30 23:59:41;;;;;;;;;;;22.20;53.60;;;;;;4746196;58;20120;-30
